sensor_id;sensor_type;location;lat;lon;timestamp;temperature;humidity
75683;HTU21D;64295;44.772;39.872;2023-03-01T00:01:59;5.21;75.73
75683;HTU21D;64295;44.772;39.872;2023-03-01T00:04:25;5.13;75.80
75683;HTU21D;64295;44.772;39.872;2023-03-01T00:06:51;5.05;76.01
75683;HTU21D;64295;44.772;39.872;2023-03-01T00:09:17;4.94;76.20
75683;HTU21D;64295;44.772;39.872;2023-03-01T00:11:44;4.88;76.20
75683;HTU21D;64295;44.772;39.872;2023-03-01T00:14:10;4.93;76.06
75683;HTU21D;64295;44.772;39.872;2023-03-01T00:16:39;4.88;76.02
75683;HTU21D;64295;44.772;39.872;2023-03-01T00:19:06;4.88;75.99
75683;HTU21D;64295;44.772;39.872;2023-03-01T00:21:33;4.74;76.34
75683;HTU21D;64295;44.772;39.872;2023-03-01T00:24:01;4.60;76.78
75683;HTU21D;64295;44.772;39.872;2023-03-01T00:26:27;4.51;77.08
75683;HTU21D;64295;44.772;39.872;2023-03-01T00:28:54;4.43;77.39
75683;HTU21D;64295;44.772;39.872;2023-03-01T00:31:22;4.38;77.40
75683;HTU21D;64295;44.772;39.872;2023-03-01T00:33:51;4.49;77.07
75683;HTU21D;64295;44.772;39.872;2023-03-01T00:36:17;4.59;76.68
75683;HTU21D;64295;44.772;39.872;2023-03-01T00:38:44;4.67;76.40
75683;HTU21D;64295;44.772;39.872;2023-03-01T00:41:15;4.75;76.15
75683;HTU21D;64295;44.772;39.872;2023-03-01T00:43:42;4.87;75.86
75683;HTU21D;64295;44.772;39.872;2023-03-01T00:46:12;4.83;75.79
75683;HTU21D;64295;44.772;39.872;2023-03-01T00:48:37;4.79;75.99
75683;HTU21D;64295;44.772;39.872;2023-03-01T00:51:12;4.74;75.92
75683;HTU21D;64295;44.772;39.872;2023-03-01T00:53:38;4.61;76.21
75683;HTU21D;64295;44.772;39.872;2023-03-01T00:56:06;4.53;76.56
75683;HTU21D;64295;44.772;39.872;2023-03-01T00:58:33;4.50;76.65
75683;HTU21D;64295;44.772;39.872;2023-03-01T01:00:59;4.46;76.73
75683;HTU21D;64295;44.772;39.872;2023-03-01T01:03:25;4.48;76.70
75683;HTU21D;64295;44.772;39.872;2023-03-01T01:05:52;4.50;76.48
75683;HTU21D;64295;44.772;39.872;2023-03-01T01:08:19;4.53;76.44
75683;HTU21D;64295;44.772;39.872;2023-03-01T01:10:46;4.56;76.34
75683;HTU21D;64295;44.772;39.872;2023-03-01T01:13:12;4.58;76.46
75683;HTU21D;64295;44.772;39.872;2023-03-01T01:15:39;4.48;76.60
75683;HTU21D;64295;44.772;39.872;2023-03-01T01:18:06;4.42;76.73
75683;HTU21D;64295;44.772;39.872;2023-03-01T01:20:32;4.39;76.73
75683;HTU21D;64295;44.772;39.872;2023-03-01T01:22:58;4.39;76.70
75683;HTU21D;64295;44.772;39.872;2023-03-01T01:25:24;4.38;76.79
75683;HTU21D;64295;44.772;39.872;2023-03-01T01:27:53;4.34;76.81
75683;HTU21D;64295;44.772;39.872;2023-03-01T01:30:19;4.36;76.76
75683;HTU21D;64295;44.772;39.872;2023-03-01T01:32:45;4.32;76.86
75683;HTU21D;64295;44.772;39.872;2023-03-01T01:35:10;4.33;76.80
75683;HTU21D;64295;44.772;39.872;2023-03-01T01:37:36;4.33;76.80
75683;HTU21D;64295;44.772;39.872;2023-03-01T01:40:03;4.31;76.71
75683;HTU21D;64295;44.772;39.872;2023-03-01T01:42:31;4.31;76.71
75683;HTU21D;64295;44.772;39.872;2023-03-01T01:45:24;4.26;77.08
75683;HTU21D;64295;44.772;39.872;2023-03-01T01:47:52;4.20;77.56
75683;HTU21D;64295;44.772;39.872;2023-03-01T01:50:18;4.09;77.07
75683;HTU21D;64295;44.772;39.872;2023-03-01T01:52:45;4.05;77.03
75683;HTU21D;64295;44.772;39.872;2023-03-01T01:55:22;4.14;76.73
75683;HTU21D;64295;44.772;39.872;2023-03-01T01:57:52;4.28;76.36
75683;HTU21D;64295;44.772;39.872;2023-03-01T02:00:22;4.24;76.33
75683;HTU21D;64295;44.772;39.872;2023-03-01T02:02:52;4.26;76.28
75683;HTU21D;64295;44.772;39.872;2023-03-01T02:05:36;4.30;76.26
75683;HTU21D;64295;44.772;39.872;2023-03-01T02:08:04;4.31;76.18
75683;HTU21D;64295;44.772;39.872;2023-03-01T02:10:32;4.24;76.37
75683;HTU21D;64295;44.772;39.872;2023-03-01T02:13:00;4.24;76.41
75683;HTU21D;64295;44.772;39.872;2023-03-01T02:15:26;4.24;76.34
75683;HTU21D;64295;44.772;39.872;2023-03-01T02:17:53;4.24;76.29
75683;HTU21D;64295;44.772;39.872;2023-03-01T02:23:14;4.29;76.14
75683;HTU21D;64295;44.772;39.872;2023-03-01T02:28:36;4.32;76.08
75683;HTU21D;64295;44.772;39.872;2023-03-01T02:31:04;4.29;76.05
75683;HTU21D;64295;44.772;39.872;2023-03-01T02:33:48;4.18;76.21
75683;HTU21D;64295;44.772;39.872;2023-03-01T02:36:21;4.13;76.33
75683;HTU21D;64295;44.772;39.872;2023-03-01T02:38:51;4.12;76.21
75683;HTU21D;64295;44.772;39.872;2023-03-01T02:41:19;4.14;76.12
75683;HTU21D;64295;44.772;39.872;2023-03-01T02:43:46;4.21;75.96
75683;HTU21D;64295;44.772;39.872;2023-03-01T02:46:24;4.28;75.77
75683;HTU21D;64295;44.772;39.872;2023-03-01T02:48:53;4.30;75.65
75683;HTU21D;64295;44.772;39.872;2023-03-01T02:51:27;4.29;75.60
75683;HTU21D;64295;44.772;39.872;2023-03-01T02:54:22;4.29;75.70
75683;HTU21D;64295;44.772;39.872;2023-03-01T02:56:49;4.23;75.74
75683;HTU21D;64295;44.772;39.872;2023-03-01T02:59:20;4.27;75.63
75683;HTU21D;64295;44.772;39.872;2023-03-01T03:01:47;4.24;75.62
75683;HTU21D;64295;44.772;39.872;2023-03-01T03:04:16;4.20;75.76
75683;HTU21D;64295;44.772;39.872;2023-03-01T03:06:45;4.26;75.65
75683;HTU21D;64295;44.772;39.872;2023-03-01T03:09:15;4.28;75.54
75683;HTU21D;64295;44.772;39.872;2023-03-01T03:11:42;4.21;75.65
75683;HTU21D;64295;44.772;39.872;2023-03-01T03:14:10;4.14;75.74
75683;HTU21D;64295;44.772;39.872;2023-03-01T03:16:41;4.17;75.67
75683;HTU21D;64295;44.772;39.872;2023-03-01T03:19:08;4.16;75.63
75683;HTU21D;64295;44.772;39.872;2023-03-01T03:21:34;4.15;75.63
75683;HTU21D;64295;44.772;39.872;2023-03-01T03:24:00;4.13;75.62
75683;HTU21D;64295;44.772;39.872;2023-03-01T03:26:26;4.12;75.62
75683;HTU21D;64295;44.772;39.872;2023-03-01T03:28:52;4.09;75.67
75683;HTU21D;64295;44.772;39.872;2023-03-01T03:31:18;4.07;75.63
75683;HTU21D;64295;44.772;39.872;2023-03-01T03:33:46;4.12;75.50
75683;HTU21D;64295;44.772;39.872;2023-03-01T03:36:17;4.17;75.34
75683;HTU21D;64295;44.772;39.872;2023-03-01T03:38:46;4.13;75.41
75683;HTU21D;64295;44.772;39.872;2023-03-01T03:41:19;4.07;75.51
75683;HTU21D;64295;44.772;39.872;2023-03-01T03:43:45;4.03;75.58
75683;HTU21D;64295;44.772;39.872;2023-03-01T03:46:12;4.00;75.73
75683;HTU21D;64295;44.772;39.872;2023-03-01T03:48:42;3.94;75.83
75683;HTU21D;64295;44.772;39.872;2023-03-01T03:51:14;3.98;75.79
75683;HTU21D;64295;44.772;39.872;2023-03-01T03:53:43;3.97;75.70
75683;HTU21D;64295;44.772;39.872;2023-03-01T03:56:10;4.02;75.50
75683;HTU21D;64295;44.772;39.872;2023-03-01T03:58:36;3.98;75.61
75683;HTU21D;64295;44.772;39.872;2023-03-01T04:01:02;3.99;75.65
75683;HTU21D;64295;44.772;39.872;2023-03-01T04:03:29;4.02;75.56
75683;HTU21D;64295;44.772;39.872;2023-03-01T04:05:57;4.07;75.38
75683;HTU21D;64295;44.772;39.872;2023-03-01T04:08:24;4.08;75.37
75683;HTU21D;64295;44.772;39.872;2023-03-01T04:10:52;4.06;75.44
75683;HTU21D;64295;44.772;39.872;2023-03-01T04:13:22;4.04;75.44
75683;HTU21D;64295;44.772;39.872;2023-03-01T04:15:54;4.04;75.46
75683;HTU21D;64295;44.772;39.872;2023-03-01T04:18:21;4.10;75.34
75683;HTU21D;64295;44.772;39.872;2023-03-01T04:20:48;4.14;75.25
75683;HTU21D;64295;44.772;39.872;2023-03-01T04:23:16;4.15;75.31
75683;HTU21D;64295;44.772;39.872;2023-03-01T04:25:52;4.14;75.38
75683;HTU21D;64295;44.772;39.872;2023-03-01T04:28:24;4.10;75.45
75683;HTU21D;64295;44.772;39.872;2023-03-01T04:30:51;4.14;75.40
75683;HTU21D;64295;44.772;39.872;2023-03-01T04:33:17;4.15;75.44
75683;HTU21D;64295;44.772;39.872;2023-03-01T04:35:44;4.12;75.50
75683;HTU21D;64295;44.772;39.872;2023-03-01T04:38:10;4.13;75.57
75683;HTU21D;64295;44.772;39.872;2023-03-01T04:40:36;4.12;75.62
75683;HTU21D;64295;44.772;39.872;2023-03-01T04:43:03;4.13;75.77
75683;HTU21D;64295;44.772;39.872;2023-03-01T04:45:29;4.09;75.85
75683;HTU21D;64295;44.772;39.872;2023-03-01T04:48:00;4.04;75.95
75683;HTU21D;64295;44.772;39.872;2023-03-01T04:50:26;4.04;75.98
75683;HTU21D;64295;44.772;39.872;2023-03-01T04:52:52;4.09;75.86
75683;HTU21D;64295;44.772;39.872;2023-03-01T04:55:18;4.07;75.84
75683;HTU21D;64295;44.772;39.872;2023-03-01T04:57:44;4.04;75.86
75683;HTU21D;64295;44.772;39.872;2023-03-01T05:00:13;4.03;75.94
75683;HTU21D;64295;44.772;39.872;2023-03-01T05:03:00;3.99;76.03
75683;HTU21D;64295;44.772;39.872;2023-03-01T05:05:38;4.00;76.07
75683;HTU21D;64295;44.772;39.872;2023-03-01T05:08:07;4.00;75.92
75683;HTU21D;64295;44.772;39.872;2023-03-01T05:10:35;4.03;75.83
75683;HTU21D;64295;44.772;39.872;2023-03-01T05:13:01;4.04;75.78
75683;HTU21D;64295;44.772;39.872;2023-03-01T05:15:29;4.07;75.80
75683;HTU21D;64295;44.772;39.872;2023-03-01T05:17:58;4.06;75.85
75683;HTU21D;64295;44.772;39.872;2023-03-01T05:20:25;4.05;75.88
75683;HTU21D;64295;44.772;39.872;2023-03-01T05:22:52;4.06;75.92
75683;HTU21D;64295;44.772;39.872;2023-03-01T05:25:20;4.06;75.92
75683;HTU21D;64295;44.772;39.872;2023-03-01T05:27:47;4.03;75.95
75683;HTU21D;64295;44.772;39.872;2023-03-01T05:30:14;4.04;76.05
75683;HTU21D;64295;44.772;39.872;2023-03-01T05:32:50;4.01;76.12
75683;HTU21D;64295;44.772;39.872;2023-03-01T05:35:21;4.05;75.99
75683;HTU21D;64295;44.772;39.872;2023-03-01T05:37:48;4.09;75.89
75683;HTU21D;64295;44.772;39.872;2023-03-01T05:40:17;4.15;75.83
75683;HTU21D;64295;44.772;39.872;2023-03-01T05:42:55;4.18;75.90
75683;HTU21D;64295;44.772;39.872;2023-03-01T05:45:23;4.16;75.83
75683;HTU21D;64295;44.772;39.872;2023-03-01T05:47:50;4.19;75.75
75683;HTU21D;64295;44.772;39.872;2023-03-01T05:50:22;4.24;75.71
75683;HTU21D;64295;44.772;39.872;2023-03-01T05:52:50;4.22;75.76
75683;HTU21D;64295;44.772;39.872;2023-03-01T05:55:18;4.19;75.89
75683;HTU21D;64295;44.772;39.872;2023-03-01T05:57:44;4.17;75.82
75683;HTU21D;64295;44.772;39.872;2023-03-01T06:00:12;4.36;75.75
75683;HTU21D;64295;44.772;39.872;2023-03-01T06:02:38;4.44;75.84
75683;HTU21D;64295;44.772;39.872;2023-03-01T06:05:07;5.37;76.52
75683;HTU21D;64295;44.772;39.872;2023-03-01T06:07:33;5.26;74.83
75683;HTU21D;64295;44.772;39.872;2023-03-01T06:09:59;5.03;74.71
75683;HTU21D;64295;44.772;39.872;2023-03-01T06:12:25;4.77;75.06
75683;HTU21D;64295;44.772;39.872;2023-03-01T06:14:51;4.64;75.28
75683;HTU21D;64295;44.772;39.872;2023-03-01T06:17:17;4.65;75.19
75683;HTU21D;64295;44.772;39.872;2023-03-01T06:19:43;4.66;75.09
75683;HTU21D;64295;44.772;39.872;2023-03-01T06:22:08;4.66;74.92
75683;HTU21D;64295;44.772;39.872;2023-03-01T06:24:34;4.71;74.80
75683;HTU21D;64295;44.772;39.872;2023-03-01T06:27:00;4.74;74.60
75683;HTU21D;64295;44.772;39.872;2023-03-01T06:29:26;4.76;74.47
75683;HTU21D;64295;44.772;39.872;2023-03-01T06:31:52;4.82;74.29
75683;HTU21D;64295;44.772;39.872;2023-03-01T06:34:18;4.80;74.14
75683;HTU21D;64295;44.772;39.872;2023-03-01T06:36:44;4.75;74.09
75683;HTU21D;64295;44.772;39.872;2023-03-01T06:39:10;4.77;74.17
75683;HTU21D;64295;44.772;39.872;2023-03-01T06:41:36;4.84;73.96
75683;HTU21D;64295;44.772;39.872;2023-03-01T06:44:01;4.83;73.70
75683;HTU21D;64295;44.772;39.872;2023-03-01T06:46:28;4.81;73.61
75683;HTU21D;64295;44.772;39.872;2023-03-01T06:48:54;4.81;73.64
75683;HTU21D;64295;44.772;39.872;2023-03-01T06:51:19;4.88;73.44
75683;HTU21D;64295;44.772;39.872;2023-03-01T06:53:46;4.86;73.12
75683;HTU21D;64295;44.772;39.872;2023-03-01T06:56:12;4.82;73.19
75683;HTU21D;64295;44.772;39.872;2023-03-01T06:58:37;4.89;73.01
75683;HTU21D;64295;44.772;39.872;2023-03-01T07:01:07;4.93;72.83
75683;HTU21D;64295;44.772;39.872;2023-03-01T07:03:33;4.93;72.63
75683;HTU21D;64295;44.772;39.872;2023-03-01T07:05:59;4.92;72.75
75683;HTU21D;64295;44.772;39.872;2023-03-01T07:08:25;5.02;72.59
75683;HTU21D;64295;44.772;39.872;2023-03-01T07:10:55;5.10;72.31
75683;HTU21D;64295;44.772;39.872;2023-03-01T07:13:28;5.15;72.13
75683;HTU21D;64295;44.772;39.872;2023-03-01T07:15:55;5.24;71.95
75683;HTU21D;64295;44.772;39.872;2023-03-01T07:18:21;5.30;71.76
75683;HTU21D;64295;44.772;39.872;2023-03-01T07:20:47;5.35;71.84
75683;HTU21D;64295;44.772;39.872;2023-03-01T07:23:13;5.47;71.57
75683;HTU21D;64295;44.772;39.872;2023-03-01T07:25:39;5.56;71.50
75683;HTU21D;64295;44.772;39.872;2023-03-01T07:28:05;5.62;71.26
75683;HTU21D;64295;44.772;39.872;2023-03-01T07:30:31;5.67;71.26
75683;HTU21D;64295;44.772;39.872;2023-03-01T07:32:58;5.81;71.10
75683;HTU21D;64295;44.772;39.872;2023-03-01T07:35:27;5.93;70.74
75683;HTU21D;64295;44.772;39.872;2023-03-01T07:37:53;5.85;70.48
75683;HTU21D;64295;44.772;39.872;2023-03-01T07:40:19;5.83;70.48
75683;HTU21D;64295;44.772;39.872;2023-03-01T07:42:45;5.87;70.55
75683;HTU21D;64295;44.772;39.872;2023-03-01T07:45:11;5.86;70.32
75683;HTU21D;64295;44.772;39.872;2023-03-01T07:47:39;5.86;70.30
75683;HTU21D;64295;44.772;39.872;2023-03-01T07:50:05;5.86;70.31
75683;HTU21D;64295;44.772;39.872;2023-03-01T07:52:31;5.96;70.19
75683;HTU21D;64295;44.772;39.872;2023-03-01T07:54:58;5.96;69.36
75683;HTU21D;64295;44.772;39.872;2023-03-01T07:57:24;5.86;69.38
75683;HTU21D;64295;44.772;39.872;2023-03-01T07:59:50;5.85;69.80
75683;HTU21D;64295;44.772;39.872;2023-03-01T08:02:15;5.84;69.68
75683;HTU21D;64295;44.772;39.872;2023-03-01T08:04:42;5.84;69.61
75683;HTU21D;64295;44.772;39.872;2023-03-01T08:07:08;5.89;69.65
75683;HTU21D;64295;44.772;39.872;2023-03-01T08:09:36;5.97;69.51
75683;HTU21D;64295;44.772;39.872;2023-03-01T08:12:04;6.08;69.42
75683;HTU21D;64295;44.772;39.872;2023-03-01T08:14:34;6.25;69.18
75683;HTU21D;64295;44.772;39.872;2023-03-01T08:17:10;6.38;68.79
75683;HTU21D;64295;44.772;39.872;2023-03-01T08:19:36;6.53;68.42
75683;HTU21D;64295;44.772;39.872;2023-03-01T08:22:02;6.60;68.39
75683;HTU21D;64295;44.772;39.872;2023-03-01T08:24:28;6.65;68.34
75683;HTU21D;64295;44.772;39.872;2023-03-01T08:26:55;6.68;68.33
75683;HTU21D;64295;44.772;39.872;2023-03-01T08:29:21;6.75;68.30
75683;HTU21D;64295;44.772;39.872;2023-03-01T08:31:48;6.85;68.25
75683;HTU21D;64295;44.772;39.872;2023-03-01T08:34:15;6.89;68.09
75683;HTU21D;64295;44.772;39.872;2023-03-01T08:36:43;6.94;67.56
75683;HTU21D;64295;44.772;39.872;2023-03-01T08:39:12;6.87;67.02
75683;HTU21D;64295;44.772;39.872;2023-03-01T08:41:39;6.75;66.56
75683;HTU21D;64295;44.772;39.872;2023-03-01T08:44:06;6.74;67.18
75683;HTU21D;64295;44.772;39.872;2023-03-01T08:46:35;6.76;66.79
75683;HTU21D;64295;44.772;39.872;2023-03-01T08:49:09;6.87;66.65
75683;HTU21D;64295;44.772;39.872;2023-03-01T08:51:36;6.93;66.65
75683;HTU21D;64295;44.772;39.872;2023-03-01T08:54:07;6.96;66.30
75683;HTU21D;64295;44.772;39.872;2023-03-01T08:56:33;6.97;66.42
75683;HTU21D;64295;44.772;39.872;2023-03-01T08:58:59;7.08;66.15
75683;HTU21D;64295;44.772;39.872;2023-03-01T09:01:33;7.11;66.20
75683;HTU21D;64295;44.772;39.872;2023-03-01T09:03:59;7.11;65.97
75683;HTU21D;64295;44.772;39.872;2023-03-01T09:06:25;7.07;65.88
75683;HTU21D;64295;44.772;39.872;2023-03-01T09:08:51;7.07;65.83
75683;HTU21D;64295;44.772;39.872;2023-03-01T09:11:19;6.96;65.28
75683;HTU21D;64295;44.772;39.872;2023-03-01T09:13:47;6.85;65.27
75683;HTU21D;64295;44.772;39.872;2023-03-01T09:16:15;6.87;65.31
75683;HTU21D;64295;44.772;39.872;2023-03-01T09:18:43;7.01;65.42
75683;HTU21D;64295;44.772;39.872;2023-03-01T09:21:12;7.14;65.28
75683;HTU21D;64295;44.772;39.872;2023-03-01T09:23:45;7.24;65.28
75683;HTU21D;64295;44.772;39.872;2023-03-01T09:26:14;7.38;65.24
75683;HTU21D;64295;44.772;39.872;2023-03-01T09:28:42;7.40;64.37
75683;HTU21D;64295;44.772;39.872;2023-03-01T09:31:10;7.40;64.00
75683;HTU21D;64295;44.772;39.872;2023-03-01T09:33:39;7.38;63.25
75683;HTU21D;64295;44.772;39.872;2023-03-01T09:36:11;7.33;62.42
75683;HTU21D;64295;44.772;39.872;2023-03-01T09:38:37;7.25;62.41
75683;HTU21D;64295;44.772;39.872;2023-03-01T09:41:09;7.19;62.27
75683;HTU21D;64295;44.772;39.872;2023-03-01T09:43:49;7.22;62.70
75683;HTU21D;64295;44.772;39.872;2023-03-01T09:46:23;7.27;62.21
75683;HTU21D;64295;44.772;39.872;2023-03-01T09:49:02;7.31;61.74
75683;HTU21D;64295;44.772;39.872;2023-03-01T09:51:33;7.34;60.64
75683;HTU21D;64295;44.772;39.872;2023-03-01T09:54:02;7.31;61.47
75683;HTU21D;64295;44.772;39.872;2023-03-01T09:56:49;7.39;60.51
75683;HTU21D;64295;44.772;39.872;2023-03-01T10:04:46;7.39;59.45
75683;HTU21D;64295;44.772;39.872;2023-03-01T10:09:40;7.57;60.11
75683;HTU21D;64295;44.772;39.872;2023-03-01T10:12:13;7.63;59.82
75683;HTU21D;64295;44.772;39.872;2023-03-01T10:14:51;7.70;59.21
75683;HTU21D;64295;44.772;39.872;2023-03-01T10:20:19;7.59;59.00
75683;HTU21D;64295;44.772;39.872;2023-03-01T10:22:45;7.63;58.85
75683;HTU21D;64295;44.772;39.872;2023-03-01T10:28:02;7.78;58.05
75683;HTU21D;64295;44.772;39.872;2023-03-01T10:30:40;7.93;57.97
75683;HTU21D;64295;44.772;39.872;2023-03-01T10:33:29;7.93;57.60
75683;HTU21D;64295;44.772;39.872;2023-03-01T10:35:55;7.99;57.96
75683;HTU21D;64295;44.772;39.872;2023-03-01T10:38:21;8.17;58.17
75683;HTU21D;64295;44.772;39.872;2023-03-01T10:40:55;8.28;58.02
75683;HTU21D;64295;44.772;39.872;2023-03-01T10:43:29;8.35;58.22
75683;HTU21D;64295;44.772;39.872;2023-03-01T10:45:57;8.38;58.31
75683;HTU21D;64295;44.772;39.872;2023-03-01T10:48:25;8.41;58.35
75683;HTU21D;64295;44.772;39.872;2023-03-01T10:56:02;8.44;57.30
75683;HTU21D;64295;44.772;39.872;2023-03-01T10:58:29;8.42;56.48
75683;HTU21D;64295;44.772;39.872;2023-03-01T11:03:35;8.42;57.33
75683;HTU21D;64295;44.772;39.872;2023-03-01T11:08:44;8.53;57.69
75683;HTU21D;64295;44.772;39.872;2023-03-01T11:11:33;8.55;57.74
75683;HTU21D;64295;44.772;39.872;2023-03-01T11:16:49;8.48;57.77
75683;HTU21D;64295;44.772;39.872;2023-03-01T11:19:23;8.46;57.84
75683;HTU21D;64295;44.772;39.872;2023-03-01T11:22:03;8.46;57.63
75683;HTU21D;64295;44.772;39.872;2023-03-01T11:24:45;8.46;56.90
75683;HTU21D;64295;44.772;39.872;2023-03-01T11:27:34;8.44;57.08
75683;HTU21D;64295;44.772;39.872;2023-03-01T11:30:07;8.47;57.08
75683;HTU21D;64295;44.772;39.872;2023-03-01T11:33:10;8.49;56.26
75683;HTU21D;64295;44.772;39.872;2023-03-01T11:35:55;8.52;55.95
75683;HTU21D;64295;44.772;39.872;2023-03-01T11:38:25;8.58;56.40
75683;HTU21D;64295;44.772;39.872;2023-03-01T11:41:28;8.63;55.69
75683;HTU21D;64295;44.772;39.872;2023-03-01T11:44:01;8.64;56.08
75683;HTU21D;64295;44.772;39.872;2023-03-01T11:51:48;8.86;55.38
75683;HTU21D;64295;44.772;39.872;2023-03-01T12:08:45;9.44;54.57
75683;HTU21D;64295;44.772;39.872;2023-03-01T12:17:15;9.09;55.52
75683;HTU21D;64295;44.772;39.872;2023-03-01T12:20:28;9.07;55.76
75683;HTU21D;64295;44.772;39.872;2023-03-01T12:23:22;8.97;55.99
75683;HTU21D;64295;44.772;39.872;2023-03-01T12:37:13;8.41;56.88
75683;HTU21D;64295;44.772;39.872;2023-03-01T12:40:21;8.29;57.02
75683;HTU21D;64295;44.772;39.872;2023-03-01T12:51:11;8.16;56.80
75683;HTU21D;64295;44.772;39.872;2023-03-01T12:53:47;8.11;56.55
75683;HTU21D;64295;44.772;39.872;2023-03-01T12:56:20;8.06;56.61
75683;HTU21D;64295;44.772;39.872;2023-03-01T13:04:29;7.86;56.71
75683;HTU21D;64295;44.772;39.872;2023-03-01T13:07:23;7.77;56.79
75683;HTU21D;64295;44.772;39.872;2023-03-01T13:10:20;7.75;55.68
75683;HTU21D;64295;44.772;39.872;2023-03-01T13:17:59;7.57;56.49
75683;HTU21D;64295;44.772;39.872;2023-03-01T13:20:46;7.54;56.29
75683;HTU21D;64295;44.772;39.872;2023-03-01T13:26:12;7.53;56.23
75683;HTU21D;64295;44.772;39.872;2023-03-01T13:29:25;7.57;56.13
75683;HTU21D;64295;44.772;39.872;2023-03-01T13:34:06;7.41;55.48
75683;HTU21D;64295;44.772;39.872;2023-03-01T13:36:50;7.35;55.66
75683;HTU21D;64295;44.772;39.872;2023-03-01T13:39:39;7.34;55.40
75683;HTU21D;64295;44.772;39.872;2023-03-01T13:42:30;7.35;55.24
75683;HTU21D;64295;44.772;39.872;2023-03-01T13:44:57;7.37;55.25
75683;HTU21D;64295;44.772;39.872;2023-03-01T13:47:23;7.39;54.55
75683;HTU21D;64295;44.772;39.872;2023-03-01T13:50:00;7.29;54.20
75683;HTU21D;64295;44.772;39.872;2023-03-01T13:52:48;7.24;53.78
75683;HTU21D;64295;44.772;39.872;2023-03-01T13:57:43;7.40;53.81
75683;HTU21D;64295;44.772;39.872;2023-03-01T14:00:32;7.56;52.92
75683;HTU21D;64295;44.772;39.872;2023-03-01T14:03:10;7.94;56.95
75683;HTU21D;64295;44.772;39.872;2023-03-01T14:05:37;8.30;54.08
75683;HTU21D;64295;44.772;39.872;2023-03-01T14:08:24;8.01;52.94
75683;HTU21D;64295;44.772;39.872;2023-03-01T14:16:36;7.42;52.85
75683;HTU21D;64295;44.772;39.872;2023-03-01T14:19:21;7.28;52.37
75683;HTU21D;64295;44.772;39.872;2023-03-01T14:22:23;7.16;52.37
75683;HTU21D;64295;44.772;39.872;2023-03-01T14:24:55;7.09;52.18
75683;HTU21D;64295;44.772;39.872;2023-03-01T14:27:21;6.99;52.21
75683;HTU21D;64295;44.772;39.872;2023-03-01T14:30:04;6.94;52.21
75683;HTU21D;64295;44.772;39.872;2023-03-01T14:32:35;6.87;52.33
75683;HTU21D;64295;44.772;39.872;2023-03-01T14:35:01;6.85;52.60
75683;HTU21D;64295;44.772;39.872;2023-03-01T14:37:34;6.87;52.65
75683;HTU21D;64295;44.772;39.872;2023-03-01T14:40:03;6.86;52.37
75683;HTU21D;64295;44.772;39.872;2023-03-01T14:42:35;6.83;51.88
75683;HTU21D;64295;44.772;39.872;2023-03-01T14:45:02;6.79;52.37
75683;HTU21D;64295;44.772;39.872;2023-03-01T14:47:34;6.81;52.41
75683;HTU21D;64295;44.772;39.872;2023-03-01T14:50:21;6.83;52.40
75683;HTU21D;64295;44.772;39.872;2023-03-01T14:52:49;6.76;51.59
75683;HTU21D;64295;44.772;39.872;2023-03-01T14:55:19;6.71;51.63
75683;HTU21D;64295;44.772;39.872;2023-03-01T14:57:48;6.68;51.36
75683;HTU21D;64295;44.772;39.872;2023-03-01T15:00:26;6.64;51.53
75683;HTU21D;64295;44.772;39.872;2023-03-01T15:02:54;6.63;51.59
75683;HTU21D;64295;44.772;39.872;2023-03-01T15:05:31;6.61;51.51
75683;HTU21D;64295;44.772;39.872;2023-03-01T15:07:59;6.59;51.59
75683;HTU21D;64295;44.772;39.872;2023-03-01T15:10:32;6.57;51.24
75683;HTU21D;64295;44.772;39.872;2023-03-01T15:13:34;6.54;51.54
75683;HTU21D;64295;44.772;39.872;2023-03-01T15:16:11;6.56;51.74
75683;HTU21D;64295;44.772;39.872;2023-03-01T15:18:43;6.59;51.87
75683;HTU21D;64295;44.772;39.872;2023-03-01T15:21:15;6.55;51.80
75683;HTU21D;64295;44.772;39.872;2023-03-01T15:23:41;6.54;51.81
75683;HTU21D;64295;44.772;39.872;2023-03-01T15:26:31;6.44;51.62
75683;HTU21D;64295;44.772;39.872;2023-03-01T15:28:59;6.37;51.88
75683;HTU21D;64295;44.772;39.872;2023-03-01T15:31:34;6.30;51.92
75683;HTU21D;64295;44.772;39.872;2023-03-01T15:34:24;6.25;51.78
75683;HTU21D;64295;44.772;39.872;2023-03-01T15:36:55;6.26;51.95
75683;HTU21D;64295;44.772;39.872;2023-03-01T15:39:42;6.25;51.93
75683;HTU21D;64295;44.772;39.872;2023-03-01T15:42:13;6.21;51.95
75683;HTU21D;64295;44.772;39.872;2023-03-01T15:45:21;6.17;52.09
75683;HTU21D;64295;44.772;39.872;2023-03-01T15:47:58;6.13;52.17
75683;HTU21D;64295;44.772;39.872;2023-03-01T15:50:28;6.09;52.30
75683;HTU21D;64295;44.772;39.872;2023-03-01T15:52:55;6.09;52.30
75683;HTU21D;64295;44.772;39.872;2023-03-01T15:55:24;6.09;52.16
75683;HTU21D;64295;44.772;39.872;2023-03-01T15:58:05;6.08;52.26
75683;HTU21D;64295;44.772;39.872;2023-03-01T16:00:34;6.07;52.32
75683;HTU21D;64295;44.772;39.872;2023-03-01T16:03:00;6.12;52.60
75683;HTU21D;64295;44.772;39.872;2023-03-01T16:05:28;6.09;52.58
75683;HTU21D;64295;44.772;39.872;2023-03-01T16:07:56;6.06;52.62
75683;HTU21D;64295;44.772;39.872;2023-03-01T16:10:23;6.02;52.62
75683;HTU21D;64295;44.772;39.872;2023-03-01T16:12:52;6.00;52.70
75683;HTU21D;64295;44.772;39.872;2023-03-01T16:15:20;5.94;52.67
75683;HTU21D;64295;44.772;39.872;2023-03-01T16:17:46;5.91;52.83
75683;HTU21D;64295;44.772;39.872;2023-03-01T16:20:19;5.90;52.85
75683;HTU21D;64295;44.772;39.872;2023-03-01T16:22:47;5.86;52.95
75683;HTU21D;64295;44.772;39.872;2023-03-01T16:25:15;5.90;52.87
75683;HTU21D;64295;44.772;39.872;2023-03-01T16:27:45;5.87;52.94
75683;HTU21D;64295;44.772;39.872;2023-03-01T16:30:13;5.87;52.93
75683;HTU21D;64295;44.772;39.872;2023-03-01T16:32:40;5.89;52.88
75683;HTU21D;64295;44.772;39.872;2023-03-01T16:35:08;5.90;52.93
75683;HTU21D;64295;44.772;39.872;2023-03-01T16:37:35;5.84;52.91
75683;HTU21D;64295;44.772;39.872;2023-03-01T16:40:03;5.83;52.96
75683;HTU21D;64295;44.772;39.872;2023-03-01T16:42:36;5.80;53.07
75683;HTU21D;64295;44.772;39.872;2023-03-01T16:45:06;5.84;53.07
75683;HTU21D;64295;44.772;39.872;2023-03-01T16:47:33;5.80;53.01
75683;HTU21D;64295;44.772;39.872;2023-03-01T16:49:59;5.83;52.91
75683;HTU21D;64295;44.772;39.872;2023-03-01T16:52:25;5.76;52.91
75683;HTU21D;64295;44.772;39.872;2023-03-01T16:54:53;5.70;52.98
75683;HTU21D;64295;44.772;39.872;2023-03-01T16:57:19;5.70;53.02
75683;HTU21D;64295;44.772;39.872;2023-03-01T16:59:45;5.68;53.04
75683;HTU21D;64295;44.772;39.872;2023-03-01T17:02:14;5.67;52.98
75683;HTU21D;64295;44.772;39.872;2023-03-01T17:04:44;5.63;53.04
75683;HTU21D;64295;44.772;39.872;2023-03-01T17:07:10;5.62;53.01
75683;HTU21D;64295;44.772;39.872;2023-03-01T17:09:37;5.59;52.97
75683;HTU21D;64295;44.772;39.872;2023-03-01T17:12:04;5.55;52.94
75683;HTU21D;64295;44.772;39.872;2023-03-01T17:14:30;5.49;52.91
75683;HTU21D;64295;44.772;39.872;2023-03-01T17:16:56;5.39;53.10
75683;HTU21D;64295;44.772;39.872;2023-03-01T17:19:22;5.34;53.10